Time;durP1;ratioP1;P1;durP2;ratioP2;P2;SDS_P1;SDS_P2;PMS_P1;PMS_P2;Temp;Humidity;BMP_temperature;BMP_pressure;BME280_temperature;BME280_humidity;BME280_pressure;Samples;Min_cycle;Max_cycle;Signal;HPM_P1;HPM_P2
2021/05/09 00:01:27;;;;;;;9.70;8.70;;;8.00;99.90;;;;;;5112966;28;20787;-67
2021/05/09 00:03:55;;;;;;;11.03;8.73;;;7.90;99.90;;;;;;5112521;28;20461;-69
2021/05/09 00:06:21;;;;;;;10.23;9.13;;;7.90;99.90;;;;;;5112649;28;20484;-68
2021/05/09 00:08:48;;;;;;;9.30;8.20;;;7.90;99.90;;;;;;5112673;28;20533;-67
2021/05/09 00:11:14;;;;;;;10.77;8.57;;;7.90;99.90;;;;;;5112228;28;20449;-69
2021/05/09 00:13:41;;;;;;;10.80;8.63;;;8.10;99.90;;;;;;5112558;28;20465;-68
2021/05/09 00:16:07;;;;;;;7.73;7.00;;;8.10;99.90;;;;;;5112477;28;20455;-69
2021/05/09 00:18:34;;;;;;;7.47;6.67;;;8.20;99.90;;;;;;5112871;27;20567;-67
2021/05/09 00:21:01;;;;;;;6.90;6.20;;;8.30;99.90;;;;;;5113375;27;20528;-68
2021/05/09 00:23:28;;;;;;;6.73;6.03;;;8.40;99.90;;;;;;5106632;27;20535;-68
2021/05/09 00:25:54;;;;;;;6.67;5.93;;;8.40;99.90;;;;;;5112625;28;20501;-68
2021/05/09 00:28:21;;;;;;;7.23;6.13;;;8.40;99.90;;;;;;5113637;28;20476;-67
2021/05/09 00:30:47;;;;;;;6.10;5.33;;;8.40;99.90;;;;;;5113328;28;20537;-68
2021/05/09 00:33:14;;;;;;;7.37;5.70;;;8.40;99.90;;;;;;5113435;28;20530;-67
2021/05/09 00:35:40;;;;;;;8.07;5.23;;;8.40;99.90;;;;;;5113235;28;20445;-67
2021/05/09 00:38:08;;;;;;;5.70;5.00;;;8.30;99.90;;;;;;5113517;28;20564;-67
2021/05/09 00:40:34;;;;;;;5.40;4.90;;;8.40;99.90;;;;;;5112048;28;20477;-68
2021/05/09 00:43:01;;;;;;;5.30;4.63;;;8.40;99.90;;;;;;5113420;28;20564;-67
2021/05/09 00:45:27;;;;;;;6.97;4.90;;;8.30;99.90;;;;;;5113292;28;20503;-68
2021/05/09 00:47:54;;;;;;;5.10;4.60;;;8.30;99.90;;;;;;5113494;28;20466;-68
2021/05/09 00:50:20;;;;;;;6.30;5.70;;;8.20;99.90;;;;;;5111947;28;20437;-67
2021/05/09 00:52:49;;;;;;;5.23;4.73;;;8.20;99.90;;;;;;5113462;28;20429;-67
2021/05/09 00:55:17;;;;;;;5.90;5.30;;;8.20;99.90;;;;;;5112967;28;20513;-67
2021/05/09 00:57:45;;;;;;;6.03;4.13;;;8.20;99.90;;;;;;5113273;28;20532;-67
2021/05/09 01:00:14;;;;;;;5.23;4.67;;;8.10;99.90;;;;;;5113363;28;20446;-68
2021/05/09 01:02:41;;;;;;;6.53;5.40;;;8.10;99.90;;;;;;5113263;28;20493;-67
2021/05/09 01:05:10;;;;;;;6.23;4.87;;;8.10;99.90;;;;;;5112663;28;20979;-68
2021/05/09 01:07:37;;;;;;;5.23;4.73;;;8.20;99.90;;;;;;5112935;28;20441;-67
2021/05/09 01:10:05;;;;;;;5.40;4.90;;;8.10;99.90;;;;;;5112953;28;20441;-68
2021/05/09 01:12:33;;;;;;;5.40;4.70;;;8.10;99.90;;;;;;5113257;28;20446;-67
2021/05/09 01:14:59;;;;;;;5.83;5.30;;;8.10;99.90;;;;;;5112740;28;20543;-68
2021/05/09 01:17:26;;;;;;;5.40;4.60;;;8.00;99.90;;;;;;5112929;28;20452;-67
2021/05/09 01:19:53;;;;;;;4.80;4.30;;;8.00;99.90;;;;;;5112840;28;20572;-67
2021/05/09 01:22:20;;;;;;;7.03;4.43;;;7.90;99.90;;;;;;5113022;28;20524;-67
2021/05/09 01:24:46;;;;;;;4.80;4.40;;;7.90;99.90;;;;;;5112563;28;20465;-67
2021/05/09 01:27:12;;;;;;;6.20;5.50;;;7.90;99.90;;;;;;5112773;28;20574;-68
2021/05/09 01:29:39;;;;;;;6.93;4.80;;;7.90;99.90;;;;;;5112648;28;20541;-67
2021/05/09 01:32:07;;;;;;;5.37;4.87;;;8.00;99.90;;;;;;5112399;28;20536;-67
2021/05/09 01:34:35;;;;;;;5.07;4.50;;;8.00;99.90;;;;;;5111753;28;20476;-66
2021/05/09 01:37:03;;;;;;;5.27;4.50;;;8.00;99.90;;;;;;5112651;28;20506;-67
2021/05/09 01:39:30;;;;;;;5.70;4.67;;;7.90;99.90;;;;;;5112562;28;20508;-67
2021/05/09 01:41:57;;;;;;;6.40;4.83;;;7.90;99.90;;;;;;5112618;28;20563;-67
2021/05/09 01:44:24;;;;;;;6.70;5.70;;;7.90;99.90;;;;;;5112459;28;20514;-66
2021/05/09 01:46:50;;;;;;;5.70;4.90;;;7.90;99.90;;;;;;5112596;28;20468;-68
2021/05/09 01:49:16;;;;;;;5.33;4.83;;;7.80;99.90;;;;;;5112231;28;20437;-67
2021/05/09 01:51:43;;;;;;;8.13;4.90;;;7.80;99.90;;;;;;5111960;28;20556;-66
2021/05/09 01:54:09;;;;;;;6.03;5.43;;;7.70;99.90;;;;;;5112093;27;20471;-68
2021/05/09 01:56:37;;;;;;;7.87;5.20;;;7.70;99.90;;;;;;5112108;28;20441;-68
2021/05/09 01:59:04;;;;;;;5.10;4.60;;;7.70;99.90;;;;;;5112050;28;20487;-67
2021/05/09 02:01:31;;;;;;;5.40;4.70;;;7.70;99.90;;;;;;5111526;28;20529;-67
2021/05/09 02:03:57;;;;;;;6.60;4.80;;;7.60;99.90;;;;;;5111791;28;20465;-68
2021/05/09 02:06:23;;;;;;;5.53;5.03;;;7.80;99.90;;;;;;5111815;28;20441;-67
2021/05/09 02:08:50;;;;;;;6.83;5.40;;;7.80;99.90;;;;;;5112092;28;20477;-67
2021/05/09 02:11:16;;;;;;;5.67;4.57;;;7.80;99.90;;;;;;5111886;28;20524;-67
2021/05/09 02:13:43;;;;;;;5.27;4.77;;;7.80;99.90;;;;;;5111718;28;20509;-67
2021/05/09 02:16:10;;;;;;;5.13;4.60;;;7.80;99.90;;;;;;5111202;28;21171;-67
2021/05/09 02:18:36;;;;;;;7.23;5.60;;;7.70;99.90;;;;;;5111638;28;20476;-67
2021/05/09 02:21:02;;;;;;;8.53;6.20;;;7.70;99.90;;;;;;5111884;28;20528;-68
2021/05/09 02:23:29;;;;;;;6.63;5.50;;;7.70;99.90;;;;;;5112077;28;20857;-68
2021/05/09 02:25:55;;;;;;;8.27;6.93;;;7.70;99.90;;;;;;5111291;28;20449;-67
2021/05/09 02:28:21;;;;;;;6.07;5.20;;;7.70;99.90;;;;;;5111218;28;20496;-68
2021/05/09 02:30:49;;;;;;;8.67;6.17;;;7.70;99.90;;;;;;5111083;28;20448;-66
2021/05/09 02:33:15;;;;;;;6.67;6.00;;;7.80;99.90;;;;;;5111272;28;21023;-67
2021/05/09 02:35:41;;;;;;;8.43;6.33;;;7.70;99.90;;;;;;5111187;28;20520;-66
2021/05/09 02:38:08;;;;;;;7.23;6.53;;;7.70;99.90;;;;;;5111380;28;20472;-67
2021/05/09 02:40:34;;;;;;;7.17;6.47;;;7.70;99.90;;;;;;5111489;28;20441;-67
2021/05/09 02:43:01;;;;;;;8.43;7.63;;;7.70;99.90;;;;;;5111144;28;20982;-68
2021/05/09 02:45:27;;;;;;;8.80;7.33;;;7.70;99.90;;;;;;5110404;28;20473;-68
2021/05/09 02:47:54;;;;;;;8.77;7.70;;;7.70;99.90;;;;;;5111367;28;20536;-67
2021/05/09 02:50:21;;;;;;;8.43;7.23;;;7.60;99.90;;;;;;5110776;28;20552;-68
2021/05/09 02:52:47;;;;;;;8.40;6.57;;;7.60;99.90;;;;;;5111148;28;20445;-68
2021/05/09 02:55:14;;;;;;;7.13;5.93;;;7.60;99.90;;;;;;5110567;28;20461;-67
2021/05/09 02:57:40;;;;;;;7.27;6.50;;;7.60;99.90;;;;;;5110724;28;20454;-68
2021/05/09 03:00:07;;;;;;;7.57;6.70;;;7.60;99.90;;;;;;5111201;28;20528;-67
2021/05/09 03:02:34;;;;;;;7.70;6.10;;;7.60;99.90;;;;;;5111250;28;20449;-67
2021/05/09 03:05:01;;;;;;;5.23;4.73;;;7.60;99.90;;;;;;5110763;28;20560;-67
2021/05/09 03:07:28;;;;;;;6.50;5.83;;;7.60;99.90;;;;;;5110991;28;20959;-67
2021/05/09 03:09:54;;;;;;;6.43;5.80;;;7.70;99.90;;;;;;5110871;28;20433;-67
2021/05/09 03:12:20;;;;;;;7.37;6.40;;;7.70;99.90;;;;;;5109966;28;20453;-66
2021/05/09 03:14:47;;;;;;;8.17;6.03;;;7.70;99.90;;;;;;5110173;28;20457;-66
2021/05/09 03:17:13;;;;;;;6.60;6.00;;;7.70;99.90;;;;;;5110650;28;20473;-68
2021/05/09 03:19:39;;;;;;;6.33;5.73;;;7.80;99.90;;;;;;5110522;28;20484;-67
2021/05/09 03:22:07;;;;;;;7.73;6.60;;;7.70;99.90;;;;;;5111014;28;20893;-68
2021/05/09 03:24:34;;;;;;;6.00;5.40;;;7.70;99.90;;;;;;5110320;28;20517;-67
2021/05/09 03:27:00;;;;;;;6.60;6.00;;;7.70;99.90;;;;;;5111047;28;20487;-67
2021/05/09 03:29:26;;;;;;;8.13;6.43;;;7.70;99.90;;;;;;5110486;28;20524;-67
2021/05/09 03:31:53;;;;;;;6.53;5.83;;;7.70;99.90;;;;;;5110716;28;20445;-68
2021/05/09 03:34:19;;;;;;;7.10;6.30;;;7.70;99.90;;;;;;5110201;28;21071;-69
2021/05/09 03:36:46;;;;;;;7.40;6.27;;;7.70;99.90;;;;;;5110482;28;20463;-67
2021/05/09 03:39:13;;;;;;;7.90;5.80;;;7.70;99.90;;;;;;5110660;28;20472;-67
2021/05/09 03:41:39;;;;;;;7.40;6.60;;;7.70;99.90;;;;;;5110605;28;20445;-67
2021/05/09 03:44:07;;;;;;;6.90;6.23;;;7.70;99.90;;;;;;5110217;28;20492;-68
2021/05/09 03:46:33;;;;;;;7.20;6.20;;;7.70;99.90;;;;;;5110489;28;20445;-67
2021/05/09 03:49:00;;;;;;;10.43;6.50;;;7.70;99.90;;;;;;5110444;28;20451;-67
2021/05/09 03:51:26;;;;;;;7.87;6.30;;;7.70;99.90;;;;;;5110434;28;20449;-68
2021/05/09 03:53:52;;;;;;;7.40;5.83;;;7.70;99.90;;;;;;5110073;28;20548;-68
2021/05/09 03:56:19;;;;;;;7.17;6.47;;;7.70;99.90;;;;;;5110279;28;20445;-67
2021/05/09 03:58:46;;;;;;;9.87;6.23;;;7.70;99.90;;;;;;5110634;28;20473;-67
2021/05/09 04:01:12;;;;;;;6.87;6.17;;;7.70;99.90;;;;;;5110160;28;20453;-68
2021/05/09 04:03:38;;;;;;;8.13;6.10;;;7.70;99.90;;;;;;5109866;28;20546;-68
2021/05/09 04:06:06;;;;;;;9.50;6.43;;;7.60;99.90;;;;;;5109890;28;20472;-68
2021/05/09 04:08:32;;;;;;;6.67;6.07;;;7.60;99.90;;;;;;5109923;28;20951;-67
2021/05/09 04:11:00;;;;;;;8.07;6.47;;;7.80;99.90;;;;;;5109708;28;21054;-69
2021/05/09 04:13:27;;;;;;;6.73;5.93;;;7.80;99.90;;;;;;5109781;28;20954;-67
2021/05/09 04:15:54;;;;;;;7.03;6.33;;;7.80;99.90;;;;;;5109523;28;20449;-67
2021/05/09 04:18:20;;;;;;;6.17;5.57;;;7.80;99.90;;;;;;5109900;28;20491;-67
2021/05/09 04:20:46;;;;;;;7.50;6.37;;;7.90;99.90;;;;;;5110008;28;20437;-66
2021/05/09 04:23:14;;;;;;;6.90;6.20;;;7.90;99.90;;;;;;5110220;28;20509;-68
2021/05/09 04:25:42;;;;;;;6.33;5.67;;;7.90;99.90;;;;;;5113650;28;20811;-67
2021/05/09 04:28:08;;;;;;;8.70;5.90;;;8.00;99.90;;;;;;5113503;28;20444;-67
2021/05/09 04:30:35;;;;;;;7.93;6.30;;;8.20;99.90;;;;;;5113537;28;20439;-66
2021/05/09 04:33:04;;;;;;;8.90;6.30;;;8.30;99.90;;;;;;5113351;28;20920;-67
2021/05/09 04:35:31;;;;;;;6.50;5.90;;;8.30;99.90;;;;;;5113246;28;20536;-67
2021/05/09 04:37:57;;;;;;;6.57;5.30;;;8.40;99.90;;;;;;5113153;28;20536;-68
2021/05/09 04:40:24;;;;;;;7.10;6.10;;;8.60;99.90;;;;;;5113377;28;20437;-68
2021/05/09 04:42:50;;;;;;;7.77;6.23;;;8.70;99.90;;;;;;5113631;28;20441;-68
2021/05/09 04:45:17;;;;;;;7.77;5.77;;;8.80;99.90;;;;;;5113001;28;20513;-67
2021/05/09 04:47:44;;;;;;;7.10;5.27;;;9.00;99.90;;;;;;5113210;28;20448;-68
2021/05/09 04:50:12;;;;;;;6.17;5.53;;;9.20;99.90;;;;;;5113115;28;20472;-67
2021/05/09 04:52:39;;;;;;;8.67;5.80;;;9.30;99.90;;;;;;5113364;28;20567;-68
2021/05/09 04:55:07;;;;;;;6.93;5.73;;;9.50;99.90;;;;;;5113102;28;20839;-67
2021/05/09 04:57:34;;;;;;;5.33;4.70;;;9.60;99.90;;;;;;5113623;28;20452;-67
2021/05/09 05:00:01;;;;;;;6.27;5.30;;;9.70;99.90;;;;;;5113135;28;20529;-67
2021/05/09 05:02:27;;;;;;;5.60;5.00;;;9.80;99.90;;;;;;5112685;28;20532;-67
2021/05/09 05:04:54;;;;;;;6.30;5.13;;;9.80;99.90;;;;;;5111872;28;20976;-67
2021/05/09 05:07:21;;;;;;;5.50;5.00;;;9.90;99.90;;;;;;5112263;28;20528;-67
2021/05/09 05:09:47;;;;;;;6.80;5.40;;;9.90;99.90;;;;;;5112386;28;20447;-67
2021/05/09 05:12:14;;;;;;;5.70;5.07;;;9.90;99.90;;;;;;5112336;28;20488;-67
2021/05/09 05:14:40;;;;;;;5.23;4.67;;;9.90;99.90;;;;;;5111923;28;20457;-67
2021/05/09 05:17:07;;;;;;;5.03;4.50;;;9.90;99.90;;;;;;5112245;28;20528;-67
2021/05/09 05:19:33;;;;;;;4.97;4.47;;;9.90;99.90;;;;;;5112149;28;20499;-68
2021/05/09 05:22:01;;;;;;;5.57;5.00;;;9.90;99.90;;;;;;5112068;28;20449;-67
2021/05/09 05:24:28;;;;;;;5.40;4.53;;;9.90;99.90;;;;;;5111542;28;20627;-67
2021/05/09 05:26:54;;;;;;;5.43;4.93;;;10.00;99.90;;;;;;5111792;28;20454;-67
2021/05/09 05:29:21;;;;;;;5.70;5.20;;;10.10;99.90;;;;;;5112161;28;20446;-68
2021/05/09 05:31:50;;;;;;;6.47;4.77;;;10.10;99.90;;;;;;5111444;28;20540;-68
2021/05/09 05:34:16;;;;;;;5.20;4.57;;;10.20;99.90;;;;;;5111297;28;20476;-67
2021/05/09 05:36:43;;;;;;;5.80;4.57;;;10.20;99.90;;;;;;5110815;28;20449;-67
2021/05/09 05:39:10;;;;;;;5.63;5.10;;;10.20;99.90;;;;;;5111507;28;20849;-68
2021/05/09 05:41:37;;;;;;;6.47;4.60;;;10.40;99.90;;;;;;5111421;28;20437;-67
2021/05/09 05:44:04;;;;;;;6.37;4.60;;;10.40;99.90;;;;;;5111186;28;21159;-68
2021/05/09 05:46:30;;;;;;;5.20;4.30;;;10.50;99.90;;;;;;5111904;28;20459;-67
2021/05/09 05:48:57;;;;;;;4.40;4.00;;;10.60;99.90;;;;;;5111809;28;20843;-67
2021/05/09 05:51:24;;;;;;;6.50;4.30;;;10.70;99.90;;;;;;5111473;28;20453;-69
2021/05/09 05:53:54;;;;;;;4.23;3.83;;;10.90;99.90;;;;;;5111463;28;20556;-67
2021/05/09 05:56:22;;;;;;;5.93;4.27;;;11.00;99.90;;;;;;5111562;28;20441;-67
2021/05/09 05:58:48;;;;;;;5.50;3.80;;;11.10;99.90;;;;;;5111014;28;20538;-68
2021/05/09 06:01:15;;;;;;;5.97;4.50;;;11.30;99.90;;;;;;5111101;28;20524;-68
2021/05/09 06:03:41;;;;;;;3.53;2.90;;;11.50;99.90;;;;;;5110957;28;20506;-67
2021/05/09 06:06:07;;;;;;;4.27;3.57;;;11.60;99.90;;;;;;5111010;28;20532;-67
2021/05/09 06:08:34;;;;;;;6.03;3.03;;;11.70;99.90;;;;;;5111041;28;21132;-67
2021/05/09 06:11:00;;;;;;;4.27;3.70;;;11.90;99.90;;;;;;5111056;28;20437;-69
2021/05/09 06:13:28;;;;;;;4.20;3.53;;;12.00;99.90;;;;;;5110874;28;20847;-68
2021/05/09 06:15:54;;;;;;;5.70;3.20;;;12.20;99.90;;;;;;5110728;28;20527;-67
2021/05/09 06:18:21;;;;;;;4.20;3.77;;;12.30;99.90;;;;;;5111267;28;20477;-68
2021/05/09 06:20:47;;;;;;;6.70;3.70;;;12.40;99.90;;;;;;5110861;28;20809;-67
2021/05/09 06:23:18;;;;;;;4.17;3.53;;;12.50;99.90;;;;;;5111135;28;20441;-67
2021/05/09 06:25:44;;;;;;;4.13;3.73;;;12.60;99.90;;;;;;5110701;28;20467;-67
2021/05/09 06:28:11;;;;;;;4.83;2.80;;;12.80;99.90;;;;;;5111025;28;20479;-68
2021/05/09 06:30:38;;;;;;;6.37;2.87;;;12.90;99.90;;;;;;5111038;28;20441;-68
2021/05/09 06:33:05;;;;;;;3.77;2.90;;;13.10;99.90;;;;;;5110831;28;20460;-67
2021/05/09 06:35:36;;;;;;;4.20;2.80;;;13.20;99.90;;;;;;5110251;28;20461;-68
2021/05/09 06:38:02;;;;;;;3.97;3.00;;;13.40;99.90;;;;;;5110495;28;20446;-67
2021/05/09 06:40:28;;;;;;;3.60;2.70;;;13.60;99.90;;;;;;5110682;28;20978;-67
2021/05/09 06:42:56;;;;;;;4.13;2.83;;;13.70;99.90;;;;;;5110774;28;20473;-67
2021/05/09 06:45:26;;;;;;;3.77;3.10;;;13.90;99.90;;;;;;5110591;28;20851;-67
2021/05/09 06:47:53;;;;;;;3.83;2.80;;;14.00;99.90;;;;;;5110410;28;20445;-67
2021/05/09 06:50:20;;;;;;;3.27;2.60;;;14.10;99.90;;;;;;5111077;28;20459;-69
2021/05/09 06:52:46;;;;;;;2.93;2.60;;;14.30;99.90;;;;;;5110866;28;20448;-67
2021/05/09 06:55:13;;;;;;;2.80;2.50;;;14.40;99.90;;;;;;5110595;28;20560;-67
2021/05/09 06:57:40;;;;;;;3.53;2.67;;;14.50;99.90;;;;;;5110745;28;20473;-70
2021/05/09 07:00:08;;;;;;;4.50;2.50;;;14.70;99.90;;;;;;5110864;28;20568;-67
2021/05/09 07:02:35;;;;;;;3.80;2.43;;;14.90;99.90;;;;;;5110972;28;20615;-67
2021/05/09 07:05:03;;;;;;;3.00;2.67;;;15.10;99.90;;;;;;5110351;28;20988;-67
2021/05/09 07:07:29;;;;;;;2.97;2.20;;;15.40;99.90;;;;;;5110714;28;20441;-67
2021/05/09 07:09:55;;;;;;;3.60;2.50;;;15.50;99.90;;;;;;5110417;28;20506;-67
2021/05/09 07:12:22;;;;;;;3.43;2.40;;;15.70;99.90;;;;;;5110497;28;20532;-69
2021/05/09 07:14:48;;;;;;;3.40;2.60;;;15.80;99.90;;;;;;5110237;28;20461;-68
2021/05/09 07:17:16;;;;;;;3.13;2.37;;;15.90;99.90;;;;;;5110601;28;20472;-66
2021/05/09 07:19:44;;;;;;;3.40;2.17;;;16.10;99.90;;;;;;5110611;28;20481;-66
2021/05/09 07:22:14;;;;;;;2.47;1.93;;;16.20;99.90;;;;;;5110380;28;21084;-66
2021/05/09 07:24:42;;;;;;;3.30;2.50;;;16.50;99.90;;;;;;5109801;28;20461;-66
2021/05/09 07:27:09;;;;;;;4.27;2.57;;;16.60;99.90;;;;;;5110747;28;20453;-69
2021/05/09 07:29:35;;;;;;;3.43;2.60;;;16.80;99.90;;;;;;5110540;28;20501;-68
2021/05/09 07:32:01;;;;;;;3.43;2.57;;;17.00;99.90;;;;;;5110391;28;20536;-67
2021/05/09 07:34:28;;;;;;;2.87;2.30;;;17.20;99.90;;;;;;5109983;28;20493;-77
2021/05/09 07:36:54;;;;;;;2.73;1.83;;;17.40;99.90;;;;;;5110240;28;20494;-71
2021/05/09 07:39:21;;;;;;;6.03;2.23;;;17.60;99.90;;;;;;5109832;28;20560;-71
2021/05/09 07:41:48;;;;;;;3.70;2.20;;;17.80;99.90;;;;;;5109173;28;20506;-69
2021/05/09 07:44:14;;;;;;;2.70;1.90;;;18.00;99.90;;;;;;5109558;28;20488;-69
2021/05/09 07:46:40;;;;;;;2.27;1.70;;;18.20;99.90;;;;;;5108882;28;20449;-70
2021/05/09 07:49:07;;;;;;;5.50;1.83;;;18.40;99.90;;;;;;5102573;28;20445;-69
2021/05/09 07:51:34;;;;;;;4.73;2.03;;;18.60;99.90;;;;;;5106635;28;21022;-70
2021/05/09 07:54:01;;;;;;;3.50;2.10;;;18.90;99.90;;;;;;5105630;28;20469;-70
2021/05/09 07:56:28;;;;;;;2.43;1.90;;;19.00;99.90;;;;;;5107319;28;20554;-70
2021/05/09 07:58:54;;;;;;;2.70;1.70;;;19.20;99.90;;;;;;5111060;28;20476;-68
2021/05/09 08:01:21;;;;;;;2.93;1.83;;;19.40;99.90;;;;;;5113683;28;20550;-71
2021/05/09 08:03:47;;;;;;;2.30;1.80;;;19.50;99.20;;;;;;5113909;28;20513;-71
2021/05/09 08:06:14;;;;;;;2.97;2.10;;;19.60;98.50;;;;;;5113786;28;20916;-71
2021/05/09 08:08:40;;;;;;;3.30;1.90;;;19.80;99.90;;;;;;5114037;28;20988;-71
2021/05/09 08:11:06;;;;;;;3.17;1.70;;;19.90;99.90;;;;;;5115345;28;20531;-71
2021/05/09 08:13:33;;;;;;;2.80;1.40;;;20.00;99.60;;;;;;5114607;28;20483;-69
2021/05/09 08:16:00;;;;;;;2.10;1.33;;;20.10;99.00;;;;;;5113825;28;20524;-69
2021/05/09 08:18:26;;;;;;;3.93;1.57;;;20.30;98.90;;;;;;5113841;28;20451;-69
2021/05/09 08:20:53;;;;;;;2.60;1.83;;;20.50;96.40;;;;;;5113935;28;20580;-70
2021/05/09 08:23:19;;;;;;;2.70;1.80;;;20.60;97.70;;;;;;5113894;28;20460;-70
2021/05/09 08:25:46;;;;;;;2.40;1.60;;;20.70;96.00;;;;;;5114072;28;20508;-71
2021/05/09 08:28:12;;;;;;;2.33;1.50;;;20.90;97.20;;;;;;5114205;28;20539;-71
2021/05/09 08:30:40;;;;;;;2.83;1.93;;;21.00;96.30;;;;;;5114270;28;20478;-71
2021/05/09 08:33:06;;;;;;;2.30;1.63;;;21.20;95.30;;;;;;5114839;27;20868;-71
2021/05/09 08:35:33;;;;;;;2.40;1.47;;;21.40;95.30;;;;;;5106072;28;20469;-71
2021/05/09 08:37:59;;;;;;;2.60;1.83;;;21.50;93.60;;;;;;5112606;28;20583;-71
2021/05/09 08:40:26;;;;;;;3.43;1.50;;;21.60;94.90;;;;;;5110955;28;20600;-76
2021/05/09 08:42:52;;;;;;;4.00;1.40;;;21.80;93.30;;;;;;5112610;28;20453;-71
2021/05/09 08:45:20;;;;;;;4.93;2.00;;;21.90;91.50;;;;;;5112824;27;20478;-73
2021/05/09 08:47:47;;;;;;;2.90;1.47;;;22.10;93.60;;;;;;5111873;28;20819;-71
2021/05/09 08:50:16;;;;;;;3.03;2.03;;;22.20;88.00;;;;;;5113537;28;20522;-71
2021/05/09 08:52:44;;;;;;;3.10;1.43;;;22.40;86.80;;;;;;5112612;28;20451;-71
2021/05/09 08:55:12;;;;;;;2.20;1.50;;;22.50;87.80;;;;;;5112235;28;20500;-71
2021/05/09 08:57:41;;;;;;;2.33;1.30;;;22.60;90.80;;;;;;5103591;28;20543;-76
2021/05/09 09:00:08;;;;;;;2.50;1.50;;;22.70;85.00;;;;;;5111170;28;20473;-71
2021/05/09 09:02:35;;;;;;;4.87;1.90;;;22.90;85.40;;;;;;5106312;28;20999;-70
2021/05/09 09:05:02;;;;;;;3.60;1.60;;;23.00;88.60;;;;;;5108126;28;20469;-70
2021/05/09 09:07:45;;;;;;;3.77;1.90;;;23.20;89.70;;;;;;5107825;28;20837;-71
2021/05/09 09:10:28;;;;;;;2.83;1.77;;;23.60;87.40;;;;;;5103795;28;20457;-71
2021/05/09 09:12:55;;;;;;;4.93;2.47;;;23.80;84.40;;;;;;5106029;28;20441;-70
2021/05/09 09:15:21;;;;;;;2.60;1.67;;;23.90;85.80;;;;;;5112501;28;20541;-71
2021/05/09 09:17:47;;;;;;;3.33;1.53;;;24.10;86.00;;;;;;5107870;28;20441;-71
2021/05/09 09:20:17;;;;;;;3.40;1.70;;;24.30;81.40;;;;;;5108659;28;20685;-71
2021/05/09 09:23:02;;;;;;;2.60;1.60;;;24.40;79.20;;;;;;5107240;28;20932;-71
2021/05/09 09:25:31;;;;;;;2.90;2.10;;;24.60;84.30;;;;;;5106280;28;20473;-71
2021/05/09 09:27:58;;;;;;;2.60;1.60;;;24.70;84.10;;;;;;5110276;28;20541;-71
2021/05/09 09:30:26;;;;;;;2.07;1.50;;;24.90;78.50;;;;;;5110886;28;20448;-70
2021/05/09 09:33:10;;;;;;;2.37;1.80;;;25.10;81.80;;;;;;5111851;28;20474;-70
2021/05/09 09:35:38;;;;;;;4.10;1.53;;;25.30;78.80;;;;;;5104866;28;20472;-71
2021/05/09 09:38:24;;;;;;;3.03;1.60;;;25.50;77.00;;;;;;5104998;28;20918;-71
2021/05/09 09:41:17;;;;;;;2.53;1.50;;;25.60;77.50;;;;;;5112185;28;20480;-71
2021/05/09 09:43:58;;;;;;;2.53;1.70;;;26.10;79.80;;;;;;5105992;28;20535;-71
2021/05/09 09:46:27;;;;;;;2.33;1.60;;;26.80;75.20;;;;;;5103266;28;20445;-71
2021/05/09 09:48:54;;;;;;;3.33;2.00;;;27.80;75.80;;;;;;5112192;28;20803;-71
2021/05/09 09:51:21;;;;;;;2.43;1.43;;;28.80;73.10;;;;;;5111720;28;20545;-73
2021/05/09 09:53:48;;;;;;;3.73;1.50;;;29.60;70.50;;;;;;5110233;28;20465;-71
2021/05/09 09:56:16;;;;;;;2.40;1.50;;;30.60;71.00;;;;;;5111816;28;20429;-71
2021/05/09 09:58:50;;;;;;;2.23;1.80;;;31.60;66.30;;;;;;5111972;28;20465;-71
2021/05/09 10:01:20;;;;;;;2.83;1.37;;;32.10;57.40;;;;;;5111681;28;20578;-71
2021/05/09 10:03:47;;;;;;;2.03;1.37;;;32.70;55.30;;;;;;5110866;28;20544;-71
2021/05/09 10:06:14;;;;;;;3.20;1.53;;;33.00;56.30;;;;;;5099692;28;20456;-72
2021/05/09 10:08:41;;;;;;;3.60;1.37;;;32.80;50.80;;;;;;5101809;28;20528;-72
2021/05/09 10:11:09;;;;;;;2.60;1.50;;;32.30;48.70;;;;;;5103248;28;20555;-72
2021/05/09 10:13:36;;;;;;;3.20;1.77;;;32.70;51.30;;;;;;5104609;28;20508;-73
2021/05/09 10:16:04;;;;;;;3.00;1.50;;;32.80;51.80;;;;;;5098018;28;20650;-72
2021/05/09 10:18:32;;;;;;;3.60;1.67;;;32.80;48.80;;;;;;5098490;28;20537;-72
2021/05/09 10:20:59;;;;;;;2.30;1.33;;;32.50;51.40;;;;;;5101844;28;20449;-72
2021/05/09 10:23:26;;;;;;;3.77;1.77;;;32.40;49.50;;;;;;5099207;28;20979;-72
2021/05/09 10:25:54;;;;;;;2.13;1.50;;;32.30;48.80;;;;;;5108496;28;20481;-73
2021/05/09 10:28:22;;;;;;;3.07;1.50;;;32.30;48.70;;;;;;5101234;28;20533;-73
2021/05/09 10:30:51;;;;;;;2.93;1.20;;;32.40;49.50;;;;;;5104290;28;20442;-73
2021/05/09 10:33:54;;;;;;;2.13;1.50;;;32.70;46.30;;;;;;5103173;28;20514;-72
2021/05/09 10:36:40;;;;;;;2.67;1.50;;;33.30;45.80;;;;;;5101679;28;20508;-72
2021/05/09 10:39:08;;;;;;;2.53;1.40;;;33.90;47.90;;;;;;5097728;27;20479;-73
2021/05/09 10:41:36;;;;;;;2.77;1.77;;;34.10;46.80;;;;;;5102265;28;20543;-72
2021/05/09 10:44:36;;;;;;;9.40;8.70;;;34.20;43.70;;;;;;5102986;28;20573;-72
2021/05/09 10:47:04;;;;;;;2.53;1.50;;;33.90;45.30;;;;;;5111373;28;20455;-73
2021/05/09 10:49:30;;;;;;;2.03;1.10;;;33.70;44.90;;;;;;5111142;28;20461;-72
2021/05/09 10:51:57;;;;;;;3.50;1.53;;;33.00;41.80;;;;;;5112024;28;20464;-73
2021/05/09 10:54:24;;;;;;;3.03;1.80;;;33.00;44.90;;;;;;5112384;28;20463;-73
2021/05/09 10:56:53;;;;;;;3.53;1.70;;;33.30;43.00;;;;;;5112728;28;20467;-73
2021/05/09 10:59:20;;;;;;;5.10;1.40;;;33.50;44.50;;;;;;5114877;27;20517;-73
2021/05/09 11:02:06;;;;;;;3.07;1.30;;;33.30;40.30;;;;;;5116426;27;20519;-72
2021/05/09 11:04:47;;;;;;;4.00;1.47;;;33.30;41.20;;;;;;5100410;28;20473;-74
2021/05/09 11:07:44;;;;;;;2.70;1.63;;;33.50;42.30;;;;;;5104699;28;20831;-73
2021/05/09 11:10:39;;;;;;;3.53;1.50;;;33.50;43.60;;;;;;5100706;28;20470;-74
2021/05/09 11:13:07;;;;;;;2.63;1.60;;;33.90;41.70;;;;;;5106181;28;20441;-73
2021/05/09 11:15:34;;;;;;;3.17;1.63;;;33.60;40.70;;;;;;5106413;28;20543;-73
2021/05/09 11:18:02;;;;;;;4.30;1.73;;;33.90;41.40;;;;;;5110210;28;20516;-74
2021/05/09 11:20:29;;;;;;;2.40;1.77;;;34.10;41.10;;;;;;5110189;28;20484;-74
2021/05/09 11:22:59;;;;;;;3.70;1.63;;;33.80;40.20;;;;;;5107391;28;20524;-74
2021/05/09 11:25:31;;;;;;;2.70;1.50;;;33.80;40.80;;;;;;5109911;28;20517;-74
2021/05/09 11:27:58;;;;;;;2.43;1.20;;;33.90;40.00;;;;;;5109955;28;20533;-73
2021/05/09 11:30:34;;;;;;;3.40;1.30;;;34.20;40.00;;;;;;5109229;28;20485;-72
2021/05/09 11:33:00;;;;;;;3.57;1.70;;;34.20;39.70;;;;;;5101327;28;20526;-72
2021/05/09 11:35:36;;;;;;;2.50;1.50;;;34.40;41.90;;;;;;5103065;28;20484;-70
2021/05/09 11:38:03;;;;;;;3.00;1.40;;;34.60;39.30;;;;;;5112566;28;20456;-70
2021/05/09 11:40:29;;;;;;;5.63;5.23;;;34.20;38.60;;;;;;5114136;28;20564;-70
2021/05/09 11:42:55;;;;;;;6.23;5.70;;;34.00;38.30;;;;;;5112989;28;20441;-71
2021/05/09 11:45:25;;;;;;;13.10;12.10;;;33.90;39.70;;;;;;5113722;28;21065;-71
2021/05/09 11:47:53;;;;;;;38.90;36.70;;;34.00;39.70;;;;;;5114295;28;20490;-70
2021/05/09 11:50:19;;;;;;;14.83;14.03;;;34.50;40.80;;;;;;5114009;28;20472;-70
2021/05/09 11:52:45;;;;;;;3.90;1.63;;;34.90;39.00;;;;;;5114023;28;20539;-70
2021/05/09 11:55:14;;;;;;;2.60;1.50;;;34.30;36.40;;;;;;5113905;28;20540;-71
2021/05/09 11:57:41;;;;;;;3.57;1.43;;;34.10;39.60;;;;;;5114027;28;20441;-70
2021/05/09 12:00:09;;;;;;;3.83;1.50;;;33.80;37.50;;;;;;5113729;28;21082;-70
2021/05/09 12:02:37;;;;;;;3.60;1.50;;;34.30;38.80;;;;;;5110255;28;20437;-70
2021/05/09 12:05:10;;;;;;;2.87;1.20;;;34.10;37.60;;;;;;5102472;28;20464;-70
2021/05/09 12:07:43;;;;;;;2.60;1.50;;;34.60;37.60;;;;;;5102078;28;20896;-71
2021/05/09 12:10:14;;;;;;;2.20;1.40;;;35.00;38.30;;;;;;5102114;28;20442;-70
2021/05/09 12:12:42;;;;;;;2.37;1.00;;;35.60;38.20;;;;;;5102572;28;20560;-70
2021/05/09 12:15:11;;;;;;;2.00;1.50;;;35.40;35.40;;;;;;5100042;27;20473;-70
2021/05/09 12:17:50;;;;;;;2.40;1.20;;;35.00;37.40;;;;;;5102771;28;21305;-70
2021/05/09 12:20:33;;;;;;;3.30;1.57;;;35.00;39.00;;;;;;5113724;28;20472;-71
2021/05/09 12:23:01;;;;;;;4.30;2.50;;;35.00;35.30;;;;;;5108420;28;20441;-70
2021/05/09 12:25:29;;;;;;;2.90;1.87;;;35.70;38.80;;;;;;5113098;28;20548;-71
2021/05/09 12:27:55;;;;;;;2.50;1.50;;;36.10;37.60;;;;;;5112732;28;20520;-70
2021/05/09 12:30:22;;;;;;;2.53;1.87;;;35.40;35.40;;;;;;5113389;27;20461;-71
2021/05/09 12:32:48;;;;;;;2.27;1.80;;;34.40;35.50;;;;;;5113326;28;20449;-71
2021/05/09 12:35:16;;;;;;;2.57;2.30;;;33.70;36.90;;;;;;5113145;28;20548;-71
2021/05/09 12:38:01;;;;;;;3.80;3.40;;;33.90;36.90;;;;;;5112782;28;20452;-72
2021/05/09 12:40:30;;;;;;;1.90;1.30;;;33.70;37.50;;;;;;5113293;28;20916;-71
2021/05/09 12:42:59;;;;;;;5.07;4.67;;;33.60;37.10;;;;;;5113357;28;20438;-71
2021/05/09 12:45:44;;;;;;;2.27;1.40;;;33.90;37.50;;;;;;5112689;28;20473;-71
2021/05/09 12:48:19;;;;;;;2.27;1.40;;;33.90;39.40;;;;;;5113172;27;20492;-72
2021/05/09 12:51:05;;;;;;;2.63;1.10;;;34.10;36.50;;;;;;5113051;28;20445;-70
2021/05/09 12:53:44;;;;;;;2.47;1.13;;;34.10;36.20;;;;;;5113005;27;20524;-71
2021/05/09 12:56:20;;;;;;;1.90;1.10;;;34.20;39.60;;;;;;5113017;28;20995;-71